createdAt,value
2018-06-30T00:01:43.242Z,9.60
2018-06-30T00:04:13.168Z,10.27
2018-06-30T00:06:42.514Z,13.37
2018-06-30T00:09:12.214Z,10.83
2018-06-30T00:11:41.742Z,12.03
2018-06-30T00:14:11.967Z,12.50
2018-06-30T00:16:44.826Z,11.63
2018-06-30T00:19:14.329Z,9.30
2018-06-30T00:21:44.038Z,13.53
2018-06-30T00:24:13.482Z,11.23
2018-06-30T00:26:42.864Z,11.23
2018-06-30T00:29:12.299Z,12.37
2018-06-30T00:31:41.713Z,14.13
2018-06-30T00:34:11.491Z,12.77
2018-06-30T00:36:41.414Z,13.53
2018-06-30T00:39:11.485Z,13.43
2018-06-30T00:41:41.002Z,11.33
2018-06-30T00:44:10.926Z,10.60
2018-06-30T00:46:40.464Z,11.03
2018-06-30T00:49:13.638Z,12.90
2018-06-30T00:51:43.011Z,15.63
2018-06-30T00:54:12.345Z,12.30
2018-06-30T00:56:41.865Z,11.53
2018-06-30T00:59:11.691Z,15.60
2018-06-30T01:01:42.091Z,14.00
2018-06-30T01:04:11.436Z,13.03
2018-06-30T01:06:40.990Z,16.13
2018-06-30T01:09:17.957Z,14.10
2018-06-30T01:11:47.303Z,14.33
2018-06-30T01:14:16.943Z,11.13
2018-06-30T01:16:48.080Z,15.80
2018-06-30T01:19:17.872Z,13.77
2018-06-30T01:21:47.521Z,14.20
2018-06-30T01:24:17.130Z,17.97
2018-06-30T01:26:46.394Z,10.40
2018-06-30T01:29:16.109Z,14.00
2018-06-30T01:31:45.629Z,12.83
2018-06-30T01:34:15.398Z,14.10
2018-06-30T01:36:44.995Z,15.60
2018-06-30T01:39:14.260Z,14.30
2018-06-30T01:41:44.055Z,17.57
2018-06-30T01:44:13.589Z,15.17
2018-06-30T01:46:43.740Z,18.63
2018-06-30T01:49:13.179Z,13.00
2018-06-30T01:51:42.536Z,15.33
2018-06-30T01:54:11.933Z,17.70
2018-06-30T01:56:41.502Z,14.03
2018-06-30T01:59:10.833Z,17.07
2018-06-30T02:01:40.653Z,14.70
2018-06-30T02:04:10.523Z,16.67
2018-06-30T02:06:39.815Z,19.27
2018-06-30T02:09:10.633Z,18.67
2018-06-30T02:11:40.740Z,13.67
2018-06-30T02:14:10.720Z,13.77
2018-06-30T02:16:40.234Z,14.03
2018-06-30T02:19:09.573Z,17.33
2018-06-30T02:21:39.163Z,14.63
2018-06-30T02:24:08.832Z,14.57
2018-06-30T02:26:40.255Z,14.43
2018-06-30T02:29:10.094Z,15.03
2018-06-30T02:31:39.531Z,16.70
2018-06-30T02:34:08.898Z,17.70
2018-06-30T02:36:38.486Z,18.37
2018-06-30T02:39:08.943Z,17.60
2018-06-30T02:41:38.279Z,14.83
2018-06-30T02:44:07.885Z,16.53
2018-06-30T02:46:37.154Z,16.63
2018-06-30T02:49:07.295Z,14.83
2018-06-30T02:51:36.983Z,15.53
2018-06-30T02:54:06.707Z,16.47
2018-06-30T02:56:36.075Z,16.33
2018-06-30T02:59:05.905Z,21.73
2018-06-30T03:01:35.543Z,16.43
2018-06-30T03:04:04.965Z,17.50
2018-06-30T03:06:34.436Z,19.23
2018-06-30T03:09:04.977Z,17.87
2018-06-30T03:11:34.516Z,15.07
2018-06-30T03:14:04.379Z,19.77
2018-06-30T03:16:34.264Z,17.47
2018-06-30T03:19:04.326Z,20.57
2018-06-30T03:21:33.624Z,16.10
2018-06-30T03:24:03.744Z,20.90
2018-06-30T03:26:33.424Z,20.70
2018-06-30T03:29:02.910Z,19.13
2018-06-30T03:31:32.683Z,17.60
2018-06-30T03:34:02.503Z,16.73
2018-06-30T03:36:32.426Z,16.67
2018-06-30T03:39:02.225Z,18.87
2018-06-30T03:41:31.538Z,20.47
2018-06-30T03:44:01.431Z,21.90
2018-06-30T03:46:30.788Z,19.50
2018-06-30T03:49:00.446Z,21.47
2018-06-30T03:51:30.374Z,23.23
2018-06-30T03:54:00.084Z,21.20
2018-06-30T03:56:30.011Z,22.23
2018-06-30T03:59:00.186Z,19.83
2018-06-30T04:01:29.627Z,21.90
2018-06-30T04:03:59.501Z,22.50
2018-06-30T04:06:29.209Z,23.97
2018-06-30T04:08:58.977Z,22.93
2018-06-30T04:11:29.076Z,20.67
2018-06-30T04:13:58.465Z,19.57
2018-06-30T04:16:28.382Z,27.90
2018-06-30T04:19:02.882Z,21.63
2018-06-30T04:21:32.264Z,19.40
2018-06-30T04:24:01.690Z,27.43
2018-06-30T04:26:31.948Z,17.67
2018-06-30T04:29:01.902Z,22.47
2018-06-30T04:31:31.200Z,17.60
2018-06-30T04:34:00.654Z,18.07
2018-06-30T04:36:31.065Z,23.73
2018-06-30T04:39:00.980Z,23.33
2018-06-30T04:41:30.688Z,23.23
2018-06-30T04:44:01.871Z,19.87
2018-06-30T04:46:32.446Z,19.83
2018-06-30T04:49:01.865Z,23.57
2018-06-30T04:51:31.101Z,22.63
2018-06-30T04:54:00.989Z,23.97
2018-06-30T04:56:31.113Z,23.87
2018-06-30T04:59:00.893Z,23.00
2018-06-30T05:01:30.371Z,20.07
2018-06-30T05:03:59.816Z,23.00
2018-06-30T05:06:29.116Z,21.23
2018-06-30T05:08:59.066Z,23.80
2018-06-30T05:11:29.092Z,25.53
2018-06-30T05:13:58.679Z,19.67
2018-06-30T05:16:27.981Z,23.97
2018-06-30T05:18:58.373Z,22.93
2018-06-30T05:21:29.583Z,19.67
2018-06-30T05:24:00.085Z,24.23
2018-06-30T05:26:29.853Z,28.97
2018-06-30T05:28:59.190Z,23.63
2018-06-30T05:31:33.251Z,25.07
2018-06-30T05:34:04.391Z,22.73
2018-06-30T05:36:33.903Z,24.73
2018-06-30T05:39:03.499Z,23.17
2018-06-30T05:41:33.337Z,24.87
2018-06-30T05:44:02.726Z,23.60
2018-06-30T05:46:32.079Z,17.30
2018-06-30T05:49:01.610Z,19.80
2018-06-30T05:51:31.561Z,18.53
2018-06-30T05:54:00.799Z,20.87
2018-06-30T05:56:31.163Z,21.70
2018-06-30T05:59:00.583Z,25.33
2018-06-30T06:01:30.104Z,18.27
2018-06-30T06:03:59.554Z,19.97
2018-06-30T06:06:29.257Z,21.23
2018-06-30T06:08:59.365Z,21.93
2018-06-30T06:11:28.968Z,20.53
2018-06-30T06:13:58.603Z,19.13
2018-06-30T06:16:28.229Z,22.00
2018-06-30T06:18:57.818Z,18.93
2018-06-30T06:21:27.463Z,18.80
2018-06-30T06:23:56.821Z,19.60
2018-06-30T06:26:26.539Z,17.53
2018-06-30T06:28:56.205Z,18.87
2018-06-30T06:31:25.750Z,20.30
2018-06-30T06:33:55.442Z,22.73
2018-06-30T06:36:25.024Z,23.40
2018-06-30T06:38:58.265Z,16.77
2018-06-30T06:41:27.682Z,18.50
2018-06-30T06:43:57.006Z,19.00
2018-06-30T06:46:26.689Z,19.50
2018-06-30T06:48:56.039Z,17.37
2018-06-30T06:51:25.763Z,17.00
2018-06-30T06:53:59.416Z,17.33
2018-06-30T06:56:28.807Z,17.33
2018-06-30T06:58:58.155Z,16.93
2018-06-30T07:01:27.472Z,15.80
2018-06-30T07:03:57.055Z,15.90
2018-06-30T07:06:26.520Z,19.33
2018-06-30T07:08:59.666Z,18.37
2018-06-30T07:11:28.947Z,16.40
2018-06-30T07:13:58.332Z,16.00
2018-06-30T07:16:27.827Z,19.93
2018-06-30T07:18:57.476Z,20.23
2018-06-30T07:21:26.881Z,15.47
2018-06-30T07:23:56.315Z,15.73
2018-06-30T07:26:25.993Z,14.33
2018-06-30T07:28:56.167Z,15.57
2018-06-30T07:31:25.827Z,13.90
2018-06-30T07:33:56.202Z,14.93
2018-06-30T07:36:25.564Z,12.40
2018-06-30T07:38:55.027Z,14.17
2018-06-30T07:41:24.336Z,10.97
2018-06-30T07:43:53.970Z,15.07
2018-06-30T07:46:24.282Z,14.30
2018-06-30T07:48:53.694Z,14.23
2018-06-30T07:51:23.077Z,15.97
2018-06-30T07:53:52.400Z,15.00
2018-06-30T07:56:26.233Z,15.50
2018-06-30T07:58:55.453Z,17.80
2018-06-30T08:01:26.015Z,15.33
2018-06-30T08:03:55.386Z,15.67
2018-06-30T08:06:25.128Z,17.47
2018-06-30T08:08:54.535Z,18.77
2018-06-30T08:11:23.911Z,14.43
2018-06-30T08:13:53.466Z,13.83
2018-06-30T08:16:23.051Z,9.80
2018-06-30T08:18:52.729Z,13.30
2018-06-30T08:21:22.148Z,10.63
2018-06-30T08:23:51.708Z,14.63
2018-06-30T08:26:21.309Z,16.90
2018-06-30T08:28:51.113Z,12.87
2018-06-30T08:31:24.556Z,15.27
2018-06-30T08:33:54.212Z,15.03
2018-06-30T08:36:27.317Z,13.27
2018-06-30T08:38:56.697Z,14.00
2018-06-30T08:41:26.243Z,12.13
2018-06-30T08:43:56.201Z,11.70
2018-06-30T08:46:25.846Z,8.70
2018-06-30T08:48:55.224Z,12.93
2018-06-30T08:51:28.199Z,9.20
2018-06-30T08:53:57.951Z,13.03
2018-06-30T08:56:27.397Z,10.43
2018-06-30T08:58:56.762Z,9.47
2018-06-30T09:01:26.645Z,12.87
2018-06-30T09:03:56.139Z,10.13
2018-06-30T09:06:26.374Z,9.17
2018-06-30T09:08:56.223Z,8.90
2018-06-30T09:11:25.525Z,8.57
2018-06-30T09:13:55.295Z,8.97
2018-06-30T09:16:25.054Z,8.20
2018-06-30T09:18:55.011Z,9.97
2018-06-30T09:21:26.230Z,11.13
2018-06-30T09:23:56.264Z,8.27
2018-06-30T09:26:25.680Z,6.73
2018-06-30T09:28:55.302Z,8.93
2018-06-30T09:31:24.679Z,10.20
2018-06-30T09:33:54.093Z,9.17
2018-06-30T09:36:23.708Z,8.60
2018-06-30T09:38:53.647Z,8.47
2018-06-30T09:41:26.542Z,8.23
2018-06-30T09:43:56.112Z,7.10
2018-06-30T09:46:25.739Z,8.43
2018-06-30T09:48:55.746Z,8.23
2018-06-30T09:51:25.548Z,7.43
2018-06-30T09:53:55.109Z,7.77
2018-06-30T09:56:25.596Z,7.90
2018-06-30T09:58:55.007Z,7.57
2018-06-30T10:01:24.307Z,7.50
2018-06-30T10:03:53.817Z,5.53
2018-06-30T10:06:23.269Z,10.10
2018-06-30T10:08:53.779Z,10.90
2018-06-30T10:11:24.328Z,6.07
2018-06-30T10:13:54.782Z,6.53
2018-06-30T10:16:25.483Z,7.27
2018-06-30T10:18:54.979Z,7.03
2018-06-30T10:21:24.464Z,10.50
2018-06-30T10:23:54.107Z,6.40
2018-06-30T10:26:23.537Z,6.83
2018-06-30T10:28:53.438Z,7.37
2018-06-30T10:31:22.932Z,8.13
2018-06-30T10:33:52.605Z,8.03
2018-06-30T10:36:22.006Z,10.97
2018-06-30T10:38:51.830Z,8.30
2018-06-30T10:41:21.696Z,5.90
2018-06-30T10:43:53.718Z,6.23
2018-06-30T10:46:23.881Z,5.03
2018-06-30T10:48:54.055Z,6.70
2018-06-30T10:51:24.410Z,6.77
2018-06-30T10:53:53.891Z,6.93
2018-06-30T10:56:23.565Z,7.47
2018-06-30T10:58:53.163Z,6.63
2018-06-30T11:01:22.994Z,6.10
2018-06-30T11:03:52.691Z,5.53
2018-06-30T11:06:22.612Z,7.07
2018-06-30T11:08:53.822Z,6.20
2018-06-30T11:11:23.467Z,6.63
2018-06-30T11:13:52.919Z,7.83
2018-06-30T11:16:22.739Z,7.80
2018-06-30T11:18:52.411Z,7.77
2018-06-30T11:21:22.583Z,6.27
2018-06-30T11:23:52.525Z,9.00
2018-06-30T11:26:22.541Z,4.50
2018-06-30T11:28:51.944Z,5.50
2018-06-30T11:31:21.836Z,5.87
2018-06-30T11:33:51.637Z,3.97
2018-06-30T11:36:21.701Z,10.43
2018-06-30T11:38:51.472Z,4.20
2018-06-30T11:41:20.794Z,3.90
2018-06-30T11:43:50.364Z,29.73
2018-06-30T11:46:20.228Z,7.33
2018-06-30T11:48:49.562Z,4.20
2018-06-30T11:51:19.006Z,6.43
2018-06-30T11:53:48.678Z,6.17
2018-06-30T11:56:18.314Z,5.60
2018-06-30T11:58:47.877Z,5.50
2018-06-30T12:01:17.307Z,5.60
2018-06-30T12:03:46.550Z,4.87
2018-06-30T12:06:16.229Z,6.20
2018-06-30T12:08:45.541Z,8.53
2018-06-30T12:11:15.778Z,6.37
2018-06-30T12:13:45.480Z,4.33
2018-06-30T12:16:14.892Z,5.93
2018-06-30T12:18:44.232Z,6.73
2018-06-30T12:21:14.591Z,4.87
2018-06-30T12:23:44.037Z,5.37
2018-06-30T12:26:13.518Z,3.83
2018-06-30T12:28:43.023Z,6.07
2018-06-30T12:31:12.722Z,6.83
2018-06-30T12:33:42.356Z,11.50
2018-06-30T12:36:12.048Z,7.33
2018-06-30T12:38:41.457Z,10.90
2018-06-30T12:41:11.072Z,10.07
2018-06-30T12:43:40.793Z,7.77
2018-06-30T12:46:10.339Z,9.63
2018-06-30T12:48:40.098Z,12.70
2018-06-30T12:51:09.393Z,10.50
2018-06-30T12:53:38.995Z,9.77
2018-06-30T12:56:08.375Z,6.17
2018-06-30T12:58:38.390Z,7.17
2018-06-30T13:01:07.882Z,7.03
2018-06-30T13:03:37.484Z,7.47
2018-06-30T13:06:06.719Z,5.23
2018-06-30T13:08:36.340Z,5.63
2018-06-30T13:11:06.219Z,7.67
2018-06-30T13:13:35.552Z,5.33
2018-06-30T13:16:04.972Z,5.17
2018-06-30T13:18:35.073Z,5.37
2018-06-30T13:21:04.413Z,5.13
2018-06-30T13:23:34.089Z,6.77
2018-06-30T13:26:03.578Z,4.80
2018-06-30T13:28:33.570Z,3.63
2018-06-30T13:31:03.311Z,3.17
2018-06-30T13:33:32.960Z,2.70
2018-06-30T13:36:02.835Z,5.20
2018-06-30T13:38:33.167Z,3.13
2018-06-30T13:41:02.920Z,2.47
2018-06-30T13:43:32.638Z,3.43
2018-06-30T13:46:02.755Z,4.57
2018-06-30T13:48:32.791Z,6.27
2018-06-30T13:51:06.835Z,3.73
2018-06-30T13:53:37.062Z,4.07
2018-06-30T13:56:07.546Z,3.40
2018-06-30T13:58:37.605Z,2.67
2018-06-30T14:01:07.116Z,4.90
2018-06-30T14:03:36.539Z,5.20
2018-06-30T14:06:05.994Z,3.80
2018-06-30T14:08:36.614Z,6.63
2018-06-30T14:11:06.061Z,3.53
2018-06-30T14:13:35.663Z,2.60
2018-06-30T14:16:05.126Z,1.90
2018-06-30T14:18:35.192Z,4.97
2018-06-30T14:21:05.321Z,4.53
2018-06-30T14:23:34.651Z,4.77
2018-06-30T14:26:04.369Z,5.77
2018-06-30T14:28:33.704Z,5.10
2018-06-30T14:31:03.519Z,2.87
2018-06-30T14:33:32.919Z,2.63
2018-06-30T14:36:02.754Z,5.30
2018-06-30T14:38:32.900Z,7.23
2018-06-30T14:41:02.673Z,4.67
2018-06-30T14:43:32.367Z,3.67
2018-06-30T14:46:01.725Z,2.20
2018-06-30T14:48:31.348Z,3.63
2018-06-30T14:51:00.833Z,2.60
2018-06-30T14:53:30.403Z,3.30
2018-06-30T14:56:00.364Z,4.60
2018-06-30T14:58:30.513Z,5.30
2018-06-30T15:00:59.867Z,4.33
2018-06-30T15:03:32.873Z,3.87
2018-06-30T15:06:02.894Z,5.73
2018-06-30T15:08:32.191Z,3.33
2018-06-30T15:11:01.474Z,3.60
2018-06-30T15:13:31.036Z,8.07
2018-06-30T15:16:00.513Z,3.00
2018-06-30T15:18:30.619Z,7.87
2018-06-30T15:21:00.156Z,3.57
2018-06-30T15:23:29.548Z,4.13
2018-06-30T15:25:59.380Z,2.40
2018-06-30T15:28:29.004Z,3.17
2018-06-30T15:30:58.659Z,2.13
2018-06-30T15:33:27.906Z,3.20
2018-06-30T15:35:57.487Z,4.20
2018-06-30T15:38:27.665Z,2.97
2018-06-30T15:40:56.995Z,4.33
2018-06-30T15:43:26.684Z,4.00
2018-06-30T15:45:56.385Z,2.50
2018-06-30T15:48:26.204Z,2.50
2018-06-30T15:50:56.007Z,5.53
2018-06-30T15:53:25.411Z,3.57
2018-06-30T15:55:54.976Z,2.43
2018-06-30T15:58:24.459Z,2.97
2018-06-30T16:00:53.868Z,3.67
2018-06-30T16:03:25.151Z,2.73
2018-06-30T16:05:56.165Z,3.43
2018-06-30T16:08:25.947Z,5.00
2018-06-30T16:10:58.653Z,3.33
2018-06-30T16:13:29.108Z,6.87
2018-06-30T16:15:59.520Z,4.70
2018-06-30T16:18:29.054Z,2.80
2018-06-30T16:20:58.514Z,2.30
2018-06-30T16:23:29.151Z,5.10
2018-06-30T16:25:58.360Z,2.60
2018-06-30T16:28:27.710Z,2.07
2018-06-30T16:30:58.008Z,3.47
2018-06-30T16:33:27.370Z,1.77
2018-06-30T16:35:56.909Z,2.90
2018-06-30T16:38:26.332Z,3.87
2018-06-30T16:40:55.781Z,7.37
2018-06-30T16:43:25.054Z,5.37
2018-06-30T16:45:54.736Z,3.43
2018-06-30T16:48:24.569Z,1.73
2018-06-30T16:50:54.579Z,4.37
2018-06-30T16:53:24.566Z,4.53
2018-06-30T16:55:53.856Z,3.57
2018-06-30T16:58:23.603Z,2.13
2018-06-30T17:00:52.989Z,2.97
2018-06-30T17:03:23.610Z,2.40
2018-06-30T17:05:53.229Z,2.10
2018-06-30T17:08:23.393Z,5.03
2018-06-30T17:10:52.640Z,4.73
2018-06-30T17:13:22.230Z,2.67
2018-06-30T17:15:51.566Z,5.50
2018-06-30T17:18:21.009Z,1.83
2018-06-30T17:20:51.176Z,4.57
2018-06-30T17:23:20.536Z,7.63
2018-06-30T17:25:50.066Z,3.23
2018-06-30T17:28:19.273Z,3.00
2018-06-30T17:30:49.611Z,5.60
2018-06-30T17:33:19.032Z,2.30
2018-06-30T17:35:48.545Z,5.67
2018-06-30T17:38:18.563Z,3.90
2018-06-30T17:40:51.935Z,3.83
2018-06-30T17:43:21.476Z,1.33
2018-06-30T17:45:51.336Z,3.03
2018-06-30T17:48:20.644Z,3.30
2018-06-30T17:50:50.532Z,1.97
2018-06-30T17:53:20.161Z,2.43
2018-06-30T17:55:49.663Z,3.70
2018-06-30T17:58:19.050Z,3.20
2018-06-30T18:00:48.382Z,6.13
2018-06-30T18:03:18.061Z,2.93
2018-06-30T18:05:47.605Z,2.83
2018-06-30T18:08:17.131Z,2.40
2018-06-30T18:10:46.732Z,2.43
2018-06-30T18:13:16.038Z,2.67
2018-06-30T18:15:45.824Z,5.27
2018-06-30T18:18:15.123Z,3.73
2018-06-30T18:20:44.991Z,2.97
2018-06-30T18:23:14.290Z,5.70
2018-06-30T18:25:43.823Z,3.90
2018-06-30T18:28:13.701Z,2.87
2018-06-30T18:30:43.411Z,4.07
2018-06-30T18:33:13.082Z,4.40
2018-06-30T18:35:42.468Z,4.57
2018-06-30T18:38:12.084Z,2.00
2018-06-30T18:40:41.974Z,1.80
2018-06-30T18:43:11.722Z,2.43
2018-06-30T18:45:41.261Z,3.13
2018-06-30T18:48:11.575Z,4.33
2018-06-30T18:50:40.855Z,3.03
2018-06-30T18:53:10.253Z,2.50
2018-06-30T18:55:39.603Z,1.73
2018-06-30T18:58:08.847Z,1.93
2018-06-30T19:00:38.761Z,2.83
2018-06-30T19:03:08.440Z,1.93
2018-06-30T19:05:37.743Z,1.50
2018-06-30T19:08:07.430Z,3.43
2018-06-30T19:10:36.940Z,10.47
2018-06-30T19:13:06.852Z,4.50
2018-06-30T19:15:36.735Z,1.50
2018-06-30T19:18:06.557Z,1.77
2018-06-30T19:20:36.104Z,1.87
2018-06-30T19:23:05.581Z,3.53
2018-06-30T19:25:36.500Z,2.03
2018-06-30T19:28:06.184Z,2.17
2018-06-30T19:30:35.522Z,1.87
2018-06-30T19:33:05.085Z,2.23
2018-06-30T19:35:34.917Z,1.63
2018-06-30T19:38:04.516Z,1.90
2018-06-30T19:40:33.820Z,1.50
2018-06-30T19:43:03.415Z,4.50
2018-06-30T19:45:33.133Z,2.87
2018-06-30T19:48:06.129Z,2.50
2018-06-30T19:50:35.692Z,3.57
2018-06-30T19:53:05.291Z,1.23
2018-06-30T19:55:35.194Z,2.40
2018-06-30T19:58:04.886Z,3.50
2018-06-30T20:00:34.458Z,5.03
2018-06-30T20:03:04.085Z,3.17
2018-06-30T20:05:33.786Z,6.07
2018-06-30T20:08:03.592Z,4.73
2018-06-30T20:10:33.123Z,5.30
2018-06-30T20:13:02.478Z,3.50
2018-06-30T20:15:32.261Z,4.20
2018-06-30T20:18:02.152Z,6.60
2018-06-30T20:20:31.556Z,5.10
2018-06-30T20:23:01.568Z,6.23
2018-06-30T20:25:31.394Z,5.57
2018-06-30T20:28:04.784Z,5.93
2018-06-30T20:30:36.132Z,4.47
2018-06-30T20:33:05.796Z,4.77
2018-06-30T20:35:35.154Z,6.50
2018-06-30T20:38:08.048Z,3.57
2018-06-30T20:40:37.931Z,4.73
2018-06-30T20:43:07.659Z,4.40
2018-06-30T20:45:37.231Z,4.03
2018-06-30T20:48:07.723Z,3.30
2018-06-30T20:50:43.254Z,5.57
2018-06-30T20:53:12.995Z,5.80
2018-06-30T20:55:42.827Z,3.23
2018-06-30T20:58:12.332Z,3.77
2018-06-30T21:00:42.284Z,3.00
2018-06-30T21:03:14.187Z,3.73
2018-06-30T21:05:44.019Z,3.27
2018-06-30T21:08:13.578Z,3.83
2018-06-30T21:10:43.366Z,3.27
2018-06-30T21:13:12.919Z,3.57
2018-06-30T21:15:42.769Z,4.03
2018-06-30T21:18:12.648Z,6.83
2018-06-30T21:20:42.116Z,3.83
2018-06-30T21:23:12.197Z,3.93
2018-06-30T21:25:41.443Z,5.07
2018-06-30T21:28:11.564Z,4.37
2018-06-30T21:30:40.907Z,5.23
2018-06-30T21:33:11.328Z,5.73
2018-06-30T21:35:41.082Z,4.57
2018-06-30T21:38:10.463Z,4.27
2018-06-30T21:40:40.748Z,2.53
2018-06-30T21:43:10.361Z,3.70
2018-06-30T21:45:39.942Z,4.70
2018-06-30T21:48:09.519Z,4.23
2018-06-30T21:50:39.482Z,3.73
2018-06-30T21:53:08.948Z,3.90
2018-06-30T21:55:39.207Z,2.63
2018-06-30T21:58:08.963Z,4.77
2018-06-30T22:00:51.889Z,3.40
2018-06-30T22:03:24.930Z,2.43
2018-06-30T22:05:56.658Z,4.57
2018-06-30T22:08:26.546Z,3.70
2018-06-30T22:10:55.986Z,7.90
2018-06-30T22:13:25.483Z,3.60
2018-06-30T22:15:55.161Z,2.40
2018-06-30T22:18:25.348Z,4.13
2018-06-30T22:20:54.697Z,2.80
2018-06-30T22:23:24.540Z,3.13
2018-06-30T22:25:53.911Z,2.87
2018-06-30T22:28:23.572Z,2.53
2018-06-30T22:30:53.221Z,1.93
2018-06-30T22:33:25.827Z,2.63
2018-06-30T22:35:55.675Z,3.00
2018-06-30T22:38:25.440Z,3.73
2018-06-30T22:40:55.329Z,2.47
2018-06-30T22:43:26.250Z,2.47
2018-06-30T22:45:56.700Z,2.30
2018-06-30T22:48:26.257Z,2.93
2018-06-30T22:50:55.623Z,3.00
2018-06-30T22:53:26.032Z,2.37
2018-06-30T22:55:55.832Z,2.33
2018-06-30T22:58:25.366Z,3.43
2018-06-30T23:00:54.804Z,4.03
2018-06-30T23:03:24.216Z,3.53
2018-06-30T23:05:53.521Z,4.10
2018-06-30T23:08:23.483Z,4.30
2018-06-30T23:10:52.817Z,1.83
2018-06-30T23:13:22.336Z,2.47
2018-06-30T23:15:51.902Z,1.40
2018-06-30T23:18:21.261Z,1.77
2018-06-30T23:20:50.567Z,1.87
2018-06-30T23:23:20.057Z,2.77
2018-06-30T23:25:50.392Z,1.07
2018-06-30T23:28:19.996Z,1.07
2018-06-30T23:30:49.723Z,3.90
2018-06-30T23:33:19.349Z,1.40
2018-06-30T23:35:52.235Z,3.37
2018-06-30T23:38:21.867Z,1.50
2018-06-30T23:40:51.720Z,1.80
2018-06-30T23:43:21.676Z,3.93
2018-06-30T23:45:51.151Z,2.87
2018-06-30T23:48:20.477Z,2.47
2018-06-30T23:50:50.132Z,1.63
2018-06-30T23:53:19.705Z,1.77
2018-06-30T23:55:49.162Z,2.90
2018-06-30T23:58:18.689Z,2.63
